Latest Weather Observations for Dennes Point

IDT60901

Issued at 7:55 pm EST Saturday 20 September 2014 (issued every 10 minutes, with the page automatically refreshed every 10 minutes)

About weather observations | Map of Hobart area stations | Latest observations for Hobart area | Other Formats
Station Details ID: 094255 Name: DENNES POINT Lat: -43.06 Lon: 147.36 Height: 5.67 m
Data from the previous 72 hours. | See also: Recent months at Dennes Point
Date/Time
EST
Tmp

°C
App
Tmp
°C
Dew
Point
°C
Rel
Hum
%
Delta-T

°C
Wind Press
QNH
hPa
Press
MSL
hPa
Rain
since
9 am
mm
Dir
 
Spd
km/h
Gust
km/h
Spd
kts
Gust
kts
20/07:30pm 11.3 4.5 5.0 65 2.9 WSW 30 39 16 21 1025.2 1025.2 0.0
20/07:00pm 11.4 5.3 4.6 63 3.1 WSW 26 33 14 18 1024.9 1024.9 0.0
20/06:30pm 11.8 6.1 4.8 62 3.2 WSW 24 41 13 22 1024.5 1024.5 0.0
20/06:00pm 11.9 6.9 4.6 61 3.3 W 20 30 11 16 1024.0 1024.0 0.0
20/05:30pm 12.5 6.0 4.7 59 3.6 W 28 37 15 20 1023.6 1023.6 0.0
20/05:00pm 13.0 5.7 5.4 60 3.5 W 33 46 18 25 1023.5 1023.5 0.0
20/04:30pm 13.1 6.7 5.3 59 3.6 W 28 44 15 24 1023.6 1023.6 0.0
20/04:00pm 13.4 7.9 5.8 60 3.6 WSW 24 32 13 17 1023.4 1023.4 0.0
20/03:30pm 14.0 8.1 5.6 57 4.0 WSW 26 39 14 21 1023.2 1023.2 0.0
20/03:00pm 13.9 7.0 6.3 60 3.6 W 32 41 17 22 1023.0 1023.0 0.0
20/02:30pm 14.0 6.7 5.6 57 4.0 W 33 43 18 23 1023.0 1023.0 0.0
20/02:00pm 15.3 8.2 6.3 55 4.3 WSW 33 46 18 25 1022.8 1022.8 0.0
20/01:30pm 13.9 7.7 6.0 59 3.8 WSW 28 41 15 22 1022.6 1022.6 0.0
20/01:00pm 15.3 8.7 7.6 60 3.8 W 32 43 17 23 1022.8 1022.8 0.0
20/12:30pm 15.9 11.1 5.8 51 4.9 W 20 33 11 18 1022.8 1022.8 0.0
20/12:00pm 15.1 9.2 5.9 54 4.4 WSW 26 32 14 17 1023.1 1023.1 0.0
20/11:30am 13.8 9.1 6.2 60 3.6 WSW 20 32 11 17 1023.2 1023.2 0.0
20/11:00am 15.4 10.0 6.2 54 4.4 W 24 39 13 21 1023.0 1023.0 0.0
20/10:30am 14.5 8.8 6.6 59 3.8 W 26 37 14 20 1022.8 1022.8 0.0
20/10:00am 14.1 9.5 6.7 61 3.6 WSW 20 37 11 20 1022.8 1022.8 0.0
20/09:30am 13.1 7.3 6.2 63 3.3 WSW 26 37 14 20 1022.9 1022.9 0.0
20/09:00am 12.6 7.9 6.2 65 3.0 WSW 20 28 11 15 1023.0 1023.0 0.8
20/08:30am 12.4 8.6 5.6 63 3.2 SW 15 22 8 12 1022.9 1022.9 0.8
20/08:00am 12.3 8.5 5.7 64 3.1 SW 15 22 8 12 1022.8 1022.8 0.8
20/07:30am 11.9 6.8 6.0 67 2.8 WSW 22 46 12 25 1022.4 1022.4 0.8
20/07:00am 11.3 6.5 5.6 68 2.6 WSW 20 33 11 18 1022.3 1022.3 0.8
20/06:30am 10.6 6.4 5.6 71 2.3 SW 17 28 9 15 1022.0 1022.0 0.8
20/06:00am 10.8 5.8 6.4 74 2.1 WSW 22 28 12 15 1021.6 1021.6 0.8
20/05:30am 10.8 6.8 6.6 75 2.0 WSW 17 19 9 10 1021.5 1021.5 0.8
20/05:00am 11.0 7.0 6.6 74 2.1 WSW 17 20 9 11 1021.1 1021.1 0.8
20/04:30am 11.0 7.1 6.9 76 1.9 WSW 17 22 9 12 1020.8 1020.8 0.8
20/04:00am 11.1 6.8 7.0 76 1.9 WSW 19 22 10 12 1020.4 1020.4 0.8
20/03:30am 10.8 6.2 6.7 76 1.9 WSW 20 24 11 13 1020.1 1020.1 0.8
20/03:00am 10.9 6.3 6.6 75 2.0 SW 20 26 11 14 1019.7 1019.7 0.8
20/02:30am 10.8 6.8 6.6 75 2.0 SW 17 24 9 13 1019.3 1019.3 0.8
20/02:00am 11.0 7.7 6.6 74 2.1 SW 13 19 7 10 1019.6 1019.6 0.8
20/01:30am 10.5 8.1 6.8 78 1.7 S 9 13 5 7 1019.7 1019.7 0.8
20/01:00am 10.3 8.2 6.6 78 1.7 S 7 11 4 6 1019.7 1019.7 0.8
20/12:30am 10.4 8.5 6.9 79 1.7 S 6 11 3 6 1019.5 1019.5 0.8
20/12:00am 10.5 7.8 7.2 80 1.6 S 11 15 6 8 1019.5 1019.5 0.8
 
Date/Time
EST
Tmp

°C
App
Tmp
°C
Dew
Point
°C
Rel
Hum
%
Delta-T

°C
Wind Press
QNH
hPa
Press
MSL
hPa
Rain
since
9 am
mm
Dir
 
Spd
km/h
Gust
km/h
Spd
kts
Gust
kts
19/11:30pm 9.6 7.8 7.0 84 1.2 SSW 6 7 3 4 1019.4 1019.4 0.8
19/11:00pm 10.2 8.2 7.3 82 1.4 SW 7 11 4 6 1019.3 1019.3 0.8
19/10:30pm 10.6 8.6 7.3 80 1.6 SW 7 11 4 6 1019.2 1019.2 0.4
19/10:00pm 10.2 8.3 7.6 84 1.2 SW 7 13 4 7 1019.2 1019.2 0.4
19/09:30pm 10.6 6.8 7.7 82 1.4 SW 17 24 9 13 1019.0 1019.0 0.4
19/09:00pm 10.7 6.9 7.4 80 1.6 WSW 17 20 9 11 1018.7 1018.7 0.2
19/08:30pm 10.9 6.1 7.4 79 1.7 WSW 22 33 12 18 1018.3 1018.3 0.2
19/08:00pm 10.9 7.1 7.6 80 1.6 SW 17 24 9 13 1018.2 1018.2 0.2
19/07:30pm 10.8 6.6 7.3 79 1.7 SW 19 28 10 15 1018.0 1018.0 0.2
19/07:00pm 11.2 4.9 7.3 77 1.9 WSW 30 39 16 21 1017.6 1017.6 0.2
19/06:30pm 11.8 7.2 6.5 70 2.5 WSW 20 26 11 14 1017.0 1017.0 0.0
19/06:00pm 11.9 6.5 6.2 68 2.7 WSW 24 32 13 17 1016.7 1016.7 0.0
19/05:30pm 12.1 5.8 5.9 66 2.9 WSW 28 37 15 20 1016.4 1016.4 0.0
19/05:00pm 12.4 4.4 5.8 64 3.1 WSW 37 46 20 25 1016.0 1016.0 0.0
19/04:30pm 13.2 5.1 5.4 59 3.6 WSW 37 52 20 28 1015.9 1015.9 0.0
19/04:08pm 14.1 4.7 4.7 53 4.4 WSW 43 61 23 33 1015.3 1015.3 0.0
19/04:00pm 14.3 4.9 4.6 52 4.5 WSW 43 56 23 30 1015.2 1015.2 0.0
19/03:33pm 14.3 5.0 4.9 53 4.4 WSW 43 63 23 34 1014.9 1014.9 0.0
19/03:30pm 14.1 4.6 4.1 51 4.6 WSW 43 59 23 32 1014.9 1014.9 0.0
19/03:07pm 14.6 5.1 4.0 49 4.9 WSW 43 63 23 34 1014.6 1014.6 0.0
19/03:00pm 14.6 4.4 3.1 46 5.2 WSW 46 63 25 34 1014.5 1014.5 0.0
19/02:30pm 14.6 4.1 3.4 47 5.1 WSW 48 69 26 37 1014.5 1014.5 0.0
19/02:00pm 14.5 4.1 4.2 50 4.7 WSW 48 61 26 33 1014.4 1014.4 0.0
19/01:30pm 14.6 3.9 4.6 51 4.6 WSW 50 61 27 33 1014.2 1014.2 0.0
19/01:00pm 14.6 5.0 4.6 51 4.6 WSW 44 59 24 32 1014.3 1014.3 0.0
19/12:41pm 14.4 5.0 4.7 52 4.5 WSW 43 63 23 34 1014.5 1014.5 0.0
19/12:30pm 14.0 4.5 4.0 51 4.6 WSW 43 57 23 31 1014.6 1014.6 0.0
19/12:09pm 14.2 4.7 5.0 54 4.3 WSW 44 63 24 34 1014.8 1014.8 0.0
19/12:00pm 14.2 5.0 5.6 56 4.1 WSW 43 56 23 30 1015.0 1015.0 0.0
19/11:33am 13.8 4.5 4.9 55 4.1 WSW 43 61 23 33 1014.9 1014.9 0.0
19/11:30am 14.2 5.5 6.1 58 3.9 WSW 41 56 22 30 1014.9 1014.9 0.0
19/11:00am 13.3 6.9 7.1 66 3.0 WSW 30 43 16 23 1015.0 1015.0 0.0
19/10:30am 13.1 7.0 6.5 64 3.2 SW 28 43 15 23 1015.0 1015.0 0.0
19/10:00am 13.6 6.7 7.4 66 3.0 WSW 33 46 18 25 1015.0 1015.0 0.0
19/09:30am 13.1 6.1 6.0 62 3.4 SW 32 54 17 29 1015.1 1015.1 0.0
19/09:26am 13.1 6.2 6.5 64 3.2 WSW 32 54 17 29 1015.1 1015.1 0.0
19/09:00am 12.6 6.2 7.1 69 2.7 WSW 30 43 16 23 1015.2 1015.2 0.8
19/08:30am 11.8 6.1 6.5 70 2.5 WSW 26 35 14 19 1015.2 1015.2 0.8
19/08:00am 11.5 5.8 6.6 72 2.3 WSW 26 35 14 19 1015.1 1015.1 0.8
19/07:30am 11.3 4.3 6.2 71 2.4 WSW 32 41 17 22 1014.8 1014.8 0.8
19/07:00am 11.0 4.5 6.4 73 2.2 WSW 30 37 16 20 1014.6 1014.6 0.8
19/06:30am 11.0 4.1 6.4 73 2.2 WSW 32 43 17 23 1014.3 1014.3 0.8
19/06:00am 10.9 4.4 6.5 74 2.1 WSW 30 39 16 21 1014.1 1014.1 0.8
19/05:30am 10.9 4.0 6.5 74 2.1 WSW 32 41 17 22 1013.6 1013.6 0.8
19/05:00am 10.6 4.5 6.4 75 2.0 WSW 28 35 15 19 1013.5 1013.5 0.8
19/04:30am 10.4 3.4 6.2 75 2.0 WSW 32 37 17 20 1013.1 1013.1 0.8
19/04:00am 10.3 3.7 6.1 75 1.9 WSW 30 41 16 22 1013.0 1013.0 0.8
19/03:30am 10.4 4.6 6.2 75 2.0 WSW 26 33 14 18 1013.2 1013.2 0.8
19/03:00am 10.6 5.5 5.8 72 2.2 WSW 22 32 12 17 1013.1 1013.1 0.8
19/02:30am 10.2 5.5 6.0 75 1.9 SW 20 28 11 15 1013.0 1013.0 0.8
19/02:00am 9.8 6.0 6.0 77 1.8 SW 15 19 8 10 1013.0 1013.0 0.8
19/01:30am 9.7 5.2 5.9 77 1.7 SW 19 26 10 14 1013.1 1013.1 0.8
19/01:00am 9.5 4.8 6.0 79 1.6 SW 20 30 11 16 1013.5 1013.5 0.8
19/12:30am 9.7 4.6 6.1 78 1.7 WSW 22 28 12 15 1013.6 1013.6 0.8
19/12:00am 10.0 5.1 5.2 72 2.2 SW 20 26 11 14 1014.0 1014.0 0.8
 
Date/Time
EST
Tmp

°C
App
Tmp
°C
Dew
Point
°C
Rel
Hum
%
Delta-T

°C
Wind Press
QNH
hPa
Press
MSL
hPa
Rain
since
9 am
mm
Dir
 
Spd
km/h
Gust
km/h
Spd
kts
Gust
kts
18/11:30pm 10.0 3.6 5.2 72 2.2 W 28 39 15 21 1013.9 1013.9 0.8
18/11:00pm 10.0 3.9 4.8 70 2.3 W 26 32 14 17 1014.1 1014.1 0.8
18/10:30pm 9.8 3.3 4.8 71 2.2 W 28 35 15 19 1014.2 1014.2 0.8
18/10:00pm 9.9 4.5 4.3 68 2.5 WSW 22 28 12 15 1014.6 1014.6 0.8
18/09:30pm 9.5 3.0 4.7 72 2.1 W 28 33 15 18 1014.8 1014.8 0.8
18/09:00pm 9.6 3.0 4.4 70 2.3 W 28 37 15 20 1015.1 1015.1 0.8
18/08:30pm 9.6 4.2 4.4 70 2.3 WSW 22 30 12 16 1015.7 1015.7 0.8
18/08:00pm 9.8 4.7 4.0 67 2.5 W 20 26 11 14 1015.6 1015.6 0.8
18/07:30pm 9.8 3.5 4.0 67 2.6 W 26 33 14 18 1015.5 1015.5 0.8
18/07:00pm 9.8 3.3 4.6 70 2.3 W 28 37 15 20 1015.3 1015.3 0.8
18/06:30pm 9.7 2.7 4.3 69 2.4 W 30 41 16 22 1015.1 1015.1 0.8
18/06:00pm 9.9 2.4 4.5 69 2.4 WSW 33 43 18 23 1014.9 1014.9 0.8
18/05:30pm 10.3 3.9 5.3 71 2.3 WSW 28 37 15 20 1014.9 1014.9 0.8
18/05:00pm 10.5 4.1 5.3 70 2.4 WSW 28 41 15 22 1014.5 1014.5 0.8
18/04:30pm 11.1 5.7 6.3 72 2.2 WSW 24 35 13 19 1014.4 1014.4 0.8
18/04:00pm 9.9 5.7 5.9 76 1.8 SSW 17 24 9 13 1014.1 1014.1 0.8
18/03:30pm 10.5 5.0 6.1 74 2.0 WSW 24 32 13 17 1013.9 1013.9 0.8
18/03:00pm 10.2 4.2 5.4 72 2.2 WSW 26 41 14 22 1014.0 1014.0 0.8
18/02:30pm 9.0 2.3 5.4 78 1.6 WSW 30 39 16 21 1014.2 1014.2 0.8
18/02:00pm 8.2 2.2 5.3 82 1.3 SW 26 37 14 20 1014.3 1014.3 0.6
18/01:30pm 8.9 2.9 5.1 77 1.7 SW 26 37 14 20 1014.3 1014.3 0.4
18/01:00pm 8.9 3.9 4.5 74 1.9 SW 20 28 11 15 1014.0 1014.0 0.2
18/12:30pm 10.4 3.7 3.9 64 2.9 WSW 28 35 15 19 1013.9 1013.9 0.0
18/12:09pm 10.8 3.7 3.4 60 3.2 WSW 30 48 16 26 1013.9 1013.9 0.0
18/12:00pm 11.6 4.1 3.6 58 3.5 WSW 32 43 17 23 1014.0 1014.0 0.0
18/11:30am 12.1 6.2 4.1 58 3.6 W 24 32 13 17 1014.6 1014.6 0.0
18/11:00am 10.8 5.8 3.6 61 3.2 SW 19 24 10 13 1014.9 1014.9 0.0
18/10:30am 10.3 2.9 3.8 64 2.9 WSW 32 44 17 24 1015.2 1015.2 0.0
18/10:00am 9.9 4.2 5.1 72 2.2 WSW 24 30 13 16 1015.5 1015.5 0.0
18/09:30am 9.1 1.9 4.9 75 1.9 WSW 32 41 17 22 1015.6 1015.6 0.0
18/09:00am 8.8 3.8 4.6 75 1.9 WSW 20 28 11 15 1015.7 1015.7 5.0
18/08:30am 8.4 3.7 5.2 80 1.4 WSW 19 24 10 13 1015.6 1015.6 5.0
18/08:00am 7.3 2.0 4.8 84 1.1 WSW 22 30 12 16 1015.5 1015.5 5.0
18/07:30am 7.1 1.4 4.9 86 1.0 WSW 24 32 13 17 1015.2 1015.2 4.8
18/07:00am 7.2 1.5 4.9 85 1.0 WSW 24 33 13 18 1014.6 1014.6 4.6
18/06:30am 7.2 1.8 4.7 84 1.1 SW 22 28 12 15 1014.3 1014.3 4.4
18/06:00am 7.3 0.7 4.1 80 1.4 WSW 28 35 15 19 1013.6 1013.6 4.0
18/05:30am 7.2 1.6 3.6 78 1.5 WSW 22 28 12 15 1013.1 1013.1 3.8
18/05:00am 7.2 2.6 3.8 79 1.5 WSW 17 22 9 12 1012.8 1012.8 3.8
18/04:30am 7.4 2.2 3.8 78 1.5 SW 20 30 11 16 1012.3 1012.3 3.8
18/04:00am 7.3 0.7 4.4 82 1.3 WSW 28 37 15 20 1011.9 1011.9 3.8
18/03:30am 7.7 1.1 4.1 78 1.6 WSW 28 35 15 19 1011.7 1011.7 3.6
18/03:00am 7.6 1.0 4.0 78 1.6 WSW 28 39 15 21 1011.4 1011.4 3.6
18/02:30am 7.6 0.7 4.6 81 1.3 W 30 35 16 19 1011.2 1011.2 3.4
18/02:09am 7.6 1.0 4.4 80 1.4 W 28 46 15 25 1011.0 1011.0 3.4
18/02:00am 7.4 2.4 4.7 83 1.2 W 20 24 11 13 1011.0 1011.0 3.4
18/01:30am 7.9 0.5 4.8 81 1.4 WSW 33 46 18 25 1010.7 1010.7 3.2
18/01:00am 7.3 -0.1 5.0 85 1.0 WSW 33 43 18 23 1010.3 1010.3 3.2
18/12:30am 7.1 0.7 5.1 87 0.9 WSW 28 39 15 21 1010.1 1010.1 3.0
18/12:00am 7.2 0.4 5.2 87 0.9 WSW 30 41 16 22 1009.6 1009.6 2.2
 
Date/Time
EST
Tmp

°C
App
Tmp
°C
Dew
Point
°C
Rel
Hum
%
Delta-T

°C
Wind Press
QNH
hPa
Press
MSL
hPa
Rain
since
9 am
mm
Dir
 
Spd
km/h
Gust
km/h
Spd
kts
Gust
kts
17/11:30pm 7.2 0.4 5.3 88 0.8 WSW 30 41 16 22 1009.2 1009.2 1.6
17/11:04pm 7.3 0.0 4.4 82 1.3 WSW 32 52 17 28 1008.7 1008.7 1.2
17/11:00pm 7.1 -0.3 4.1 81 1.3 WSW 32 41 17 22 1008.6 1008.6 1.2
17/10:30pm 7.5 0.7 3.2 74 1.8 W 28 35 15 19 1008.4 1008.4 1.0
17/10:00pm 7.7 1.6 2.6 70 2.1 W 24 32 13 17 1008.1 1008.1 1.0
17/09:30pm 7.7 0.7 1.8 66 2.4 W 28 35 15 19 1007.8 1007.8 1.0
17/09:00pm 7.9 1.6 1.3 63 2.7 WSW 24 35 13 19 1007.4 1007.4 1.0
17/08:30pm 8.1 2.4 0.6 59 3.0 WSW 20 30 11 16 1007.2 1007.2 1.0
17/08:00pm 7.8 0.6 0.8 61 2.8 W 28 35 15 19 1006.6 1006.6 1.0

Latest Capital City Observations: Canberra | Sydney | Melbourne | Brisbane | Adelaide | Perth | Hobart | Darwin

Other Formats:

Comma delimited format used in spreadsheet applications
http://www.bom.gov.au/fwo/IDT60901/IDT60901.94988.axf

JavaScript Object Notation format (JSON) in row-major order
http://www.bom.gov.au/fwo/IDT60901/IDT60901.94988.json